Etusivu
METAR-TAF:

METAR-TAF

Lentoasemat :

Opelousas, Louisiana, Yhdysvallat

Leveyspiiri: 30-33-30N, Pituuspiiri: 092-05-58W, korkeus merenpinnasta: 23 m

Tämänhetkinen sää

Tämä raportti tehtiin 29 minuuttia sitten, kello 16.35 UTC
Tuuli 12 kn lännestä/lounaasta puuskistuen 15 kn:hen
Lämpötila 10°C
Kosteus 66%
Ilmanpaine 1012 hPa
Näkyvyys: 16.1 km
Pilvistä 3300 ft:n korkeudessa

METAR: KOPL 141635Z AUTO 24012G15KT 10SM OVC033 10/04 A2988 RMK AO2 T01010039

Aika: 11:04 (17:04 UTC)


TAF: puuttuu

Säähavainnot ja -ennusteet yli 4000 lentoasemalta (METAR- ja TAF-raportit).

Käytössä olevat sääasemat on merkitty karttaan keltaisilla ja punaisilla pisteillä.

Aseta hiiri pisteen päälle nähdäksesi sääaseman nimen.

Klikkaa sitten nähdäksesi säähavainnot ja -ennusteet.

Kartan vaihtaminen: klikkaa mustalla rastilla varustettuja vihreitä pisteitä, niin voit zoomata sisään; viivalla varustettua vihreää pistettä, niin voit zoomata ulos tai vihreitä nuolia, niin pääset viereisille kartoille.


METAR-TAF: